sensor_id;sensor_type;location;lat;lon;timestamp;P1;durP1;ratioP1;P2;durP2;ratioP2
31010;SDS011;26395;53.412;19.598;2022-11-20T00:07:33;46.00;;;19.80;;
31010;SDS011;26395;53.412;19.598;2022-11-20T00:22:36;58.20;;;25.70;;
31010;SDS011;26395;53.412;19.598;2022-11-20T00:37:39;49.20;;;21.80;;
31010;SDS011;26395;53.412;19.598;2022-11-20T00:52:43;43.30;;;19.10;;
31010;SDS011;26395;53.412;19.598;2022-11-20T01:07:46;47.40;;;20.80;;
31010;SDS011;26395;53.412;19.598;2022-11-20T01:22:49;55.70;;;24.50;;
31010;SDS011;26395;53.412;19.598;2022-11-20T01:37:53;48.00;;;22.00;;
31010;SDS011;26395;53.412;19.598;2022-11-20T01:53:06;43.90;;;19.70;;
31010;SDS011;26395;53.412;19.598;2022-11-20T02:08:12;37.20;;;16.50;;
31010;SDS011;26395;53.412;19.598;2022-11-20T02:38:42;33.80;;;14.60;;
31010;SDS011;26395;53.412;19.598;2022-11-20T02:53:46;40.10;;;17.80;;
31010;SDS011;26395;53.412;19.598;2022-11-20T03:08:50;50.20;;;21.60;;
31010;SDS011;26395;53.412;19.598;2022-11-20T03:23:53;55.40;;;23.20;;
31010;SDS011;26395;53.412;19.598;2022-11-20T03:38:57;49.80;;;22.20;;
31010;SDS011;26395;53.412;19.598;2022-11-20T03:54:03;52.50;;;23.40;;
31010;SDS011;26395;53.412;19.598;2022-11-20T04:09:10;56.10;;;25.70;;
31010;SDS011;26395;53.412;19.598;2022-11-20T04:24:13;57.30;;;25.80;;
31010;SDS011;26395;53.412;19.598;2022-11-20T04:39:16;60.10;;;26.60;;
31010;SDS011;26395;53.412;19.598;2022-11-20T04:54:20;57.60;;;25.60;;
31010;SDS011;26395;53.412;19.598;2022-11-20T05:09:23;51.60;;;23.60;;
31010;SDS011;26395;53.412;19.598;2022-11-20T05:24:27;61.00;;;25.30;;
31010;SDS011;26395;53.412;19.598;2022-11-20T05:39:30;62.80;;;25.50;;
31010;SDS011;26395;53.412;19.598;2022-11-20T05:54:33;57.70;;;23.50;;
31010;SDS011;26395;53.412;19.598;2022-11-20T06:09:37;63.00;;;27.40;;
31010;SDS011;26395;53.412;19.598;2022-11-20T06:24:40;102.70;;;42.40;;
31010;SDS011;26395;53.412;19.598;2022-11-20T06:39:43;64.80;;;28.80;;
31010;SDS011;26395;53.412;19.598;2022-11-20T06:54:47;78.80;;;38.20;;
31010;SDS011;26395;53.412;19.598;2022-11-20T07:09:51;109.50;;;49.10;;
31010;SDS011;26395;53.412;19.598;2022-11-20T07:24:55;101.30;;;45.90;;
31010;SDS011;26395;53.412;19.598;2022-11-20T07:39:58;191.00;;;64.30;;
31010;SDS011;26395;53.412;19.598;2022-11-20T07:55:02;87.90;;;34.80;;
31010;SDS011;26395;53.412;19.598;2022-11-20T08:10:07;137.70;;;45.60;;
31010;SDS011;26395;53.412;19.598;2022-11-20T08:25:12;129.30;;;47.70;;
31010;SDS011;26395;53.412;19.598;2022-11-20T08:40:16;84.70;;;36.70;;
31010;SDS011;26395;53.412;19.598;2022-11-20T08:55:22;71.80;;;32.90;;
31010;SDS011;26395;53.412;19.598;2022-11-20T09:10:27;114.70;;;45.60;;
31010;SDS011;26395;53.412;19.598;2022-11-20T09:25:30;80.80;;;37.80;;
31010;SDS011;26395;53.412;19.598;2022-11-20T09:40:35;57.50;;;25.30;;
31010;SDS011;26395;53.412;19.598;2022-11-20T09:55:42;55.90;;;25.10;;
31010;SDS011;26395;53.412;19.598;2022-11-20T10:10:47;79.80;;;32.70;;
31010;SDS011;26395;53.412;19.598;2022-11-20T10:26:00;81.30;;;34.80;;
31010;SDS011;26395;53.412;19.598;2022-11-20T10:41:06;61.30;;;29.00;;
31010;SDS011;26395;53.412;19.598;2022-11-20T11:11:35;71.50;;;29.10;;
31010;SDS011;26395;53.412;19.598;2022-11-20T11:26:50;66.70;;;28.30;;
31010;SDS011;26395;53.412;19.598;2022-11-20T11:42:02;78.60;;;34.80;;
31010;SDS011;26395;53.412;19.598;2022-11-20T11:57:18;75.60;;;34.90;;
31010;SDS011;26395;53.412;19.598;2022-11-20T12:12:30;75.90;;;33.30;;
31010;SDS011;26395;53.412;19.598;2022-11-20T12:43:20;70.60;;;31.10;;
31010;SDS011;26395;53.412;19.598;2022-11-20T13:14:18;103.00;;;42.00;;
31010;SDS011;26395;53.412;19.598;2022-11-20T13:29:44;106.30;;;42.50;;
31010;SDS011;26395;53.412;19.598;2022-11-20T13:44:53;117.50;;;48.00;;
31010;SDS011;26395;53.412;19.598;2022-11-20T14:00:12;139.20;;;52.90;;
31010;SDS011;26395;53.412;19.598;2022-11-20T14:15:33;133.70;;;51.10;;
31010;SDS011;26395;53.412;19.598;2022-11-20T14:30:44;89.30;;;41.50;;
31010;SDS011;26395;53.412;19.598;2022-11-20T15:01:06;79.10;;;33.20;;
31010;SDS011;26395;53.412;19.598;2022-11-20T15:16:18;107.60;;;40.40;;
31010;SDS011;26395;53.412;19.598;2022-11-20T15:31:24;148.20;;;59.50;;
31010;SDS011;26395;53.412;19.598;2022-11-20T15:46:30;113.70;;;51.90;;
31010;SDS011;26395;53.412;19.598;2022-11-20T16:01:40;63.10;;;26.70;;
31010;SDS011;26395;53.412;19.598;2022-11-20T16:16:44;61.70;;;26.70;;
31010;SDS011;26395;53.412;19.598;2022-11-20T16:31:48;54.20;;;24.40;;
31010;SDS011;26395;53.412;19.598;2022-11-20T16:46:53;65.10;;;28.00;;
31010;SDS011;26395;53.412;19.598;2022-11-20T17:01:58;70.80;;;32.90;;
31010;SDS011;26395;53.412;19.598;2022-11-20T17:17:01;65.70;;;30.60;;
31010;SDS011;26395;53.412;19.598;2022-11-20T17:32:05;75.10;;;33.80;;
31010;SDS011;26395;53.412;19.598;2022-11-20T17:47:09;72.20;;;29.20;;
31010;SDS011;26395;53.412;19.598;2022-11-20T18:02:13;64.40;;;26.40;;
31010;SDS011;26395;53.412;19.598;2022-11-20T18:17:17;100.70;;;39.80;;
31010;SDS011;26395;53.412;19.598;2022-11-20T18:32:21;65.80;;;31.30;;
31010;SDS011;26395;53.412;19.598;2022-11-20T18:47:26;87.60;;;36.20;;
31010;SDS011;26395;53.412;19.598;2022-11-20T19:02:34;67.70;;;27.50;;
31010;SDS011;26395;53.412;19.598;2022-11-20T19:17:45;75.80;;;31.70;;
31010;SDS011;26395;53.412;19.598;2022-11-20T19:32:49;62.40;;;29.90;;
31010;SDS011;26395;53.412;19.598;2022-11-20T19:47:54;96.80;;;40.30;;
31010;SDS011;26395;53.412;19.598;2022-11-20T20:03:12;71.50;;;28.20;;
31010;SDS011;26395;53.412;19.598;2022-11-20T20:18:15;57.50;;;26.30;;
31010;SDS011;26395;53.412;19.598;2022-11-20T20:33:19;80.40;;;33.40;;
31010;SDS011;26395;53.412;19.598;2022-11-20T20:48:24;65.30;;;28.30;;
31010;SDS011;26395;53.412;19.598;2022-11-20T21:03:27;67.60;;;26.80;;
31010;SDS011;26395;53.412;19.598;2022-11-20T21:18:34;84.50;;;32.30;;
31010;SDS011;26395;53.412;19.598;2022-11-20T21:33:40;58.50;;;24.20;;
31010;SDS011;26395;53.412;19.598;2022-11-20T21:48:45;71.50;;;31.40;;
31010;SDS011;26395;53.412;19.598;2022-11-20T22:03:50;109.50;;;41.00;;
31010;SDS011;26395;53.412;19.598;2022-11-20T22:18:56;94.40;;;38.20;;
31010;SDS011;26395;53.412;19.598;2022-11-20T22:34:01;69.70;;;29.10;;
31010;SDS011;26395;53.412;19.598;2022-11-20T22:49:06;113.50;;;44.20;;
31010;SDS011;26395;53.412;19.598;2022-11-20T23:04:13;106.80;;;41.80;;
31010;SDS011;26395;53.412;19.598;2022-11-20T23:19:17;98.70;;;38.10;;
31010;SDS011;26395;53.412;19.598;2022-11-20T23:34:21;89.00;;;36.20;;
31010;SDS011;26395;53.412;19.598;2022-11-20T23:49:25;120.90;;;42.60;;
